sensor_id;sensor_type;location;lat;lon;timestamp;P1;durP1;ratioP1;P2;durP2;ratioP2
16197;SDS011;8206;51.440;6.914;2022-11-21T00:00:20;7.60;;;5.90;;
16197;SDS011;8206;51.440;6.914;2022-11-21T00:02:47;9.33;;;4.83;;
16197;SDS011;8206;51.440;6.914;2022-11-21T00:05:14;5.63;;;5.23;;
16197;SDS011;8206;51.440;6.914;2022-11-21T00:07:41;5.10;;;4.80;;
16197;SDS011;8206;51.440;6.914;2022-11-21T00:10:08;10.37;;;6.10;;
16197;SDS011;8206;51.440;6.914;2022-11-21T00:12:35;5.77;;;5.23;;
16197;SDS011;8206;51.440;6.914;2022-11-21T00:15:03;3.73;;;3.43;;
16197;SDS011;8206;51.440;6.914;2022-11-21T00:17:30;8.00;;;6.57;;
16197;SDS011;8206;51.440;6.914;2022-11-21T00:19:57;8.17;;;4.37;;
16197;SDS011;8206;51.440;6.914;2022-11-21T00:22:24;5.27;;;4.10;;
16197;SDS011;8206;51.440;6.914;2022-11-21T00:24:51;5.77;;;5.17;;
16197;SDS011;8206;51.440;6.914;2022-11-21T00:27:17;5.90;;;5.37;;
16197;SDS011;8206;51.440;6.914;2022-11-21T00:29:44;11.33;;;6.43;;
16197;SDS011;8206;51.440;6.914;2022-11-21T00:32:12;6.50;;;5.33;;
16197;SDS011;8206;51.440;6.914;2022-11-21T00:34:39;5.47;;;5.17;;
16197;SDS011;8206;51.440;6.914;2022-11-21T00:37:06;13.10;;;5.57;;
16197;SDS011;8206;51.440;6.914;2022-11-21T00:39:32;5.47;;;5.03;;
16197;SDS011;8206;51.440;6.914;2022-11-21T00:41:59;4.33;;;4.03;;
16197;SDS011;8206;51.440;6.914;2022-11-21T00:44:26;7.73;;;6.70;;
16197;SDS011;8206;51.440;6.914;2022-11-21T00:46:52;5.93;;;5.53;;
16197;SDS011;8206;51.440;6.914;2022-11-21T00:49:21;11.57;;;6.07;;
16197;SDS011;8206;51.440;6.914;2022-11-21T00:51:47;6.70;;;4.83;;
16197;SDS011;8206;51.440;6.914;2022-11-21T00:54:14;4.60;;;4.30;;
16197;SDS011;8206;51.440;6.914;2022-11-21T00:56:41;7.83;;;7.07;;
16197;SDS011;8206;51.440;6.914;2022-11-21T00:59:08;14.47;;;5.00;;
16197;SDS011;8206;51.440;6.914;2022-11-21T01:01:34;25.70;;;6.30;;
16197;SDS011;8206;51.440;6.914;2022-11-21T01:04:01;5.13;;;4.67;;
16197;SDS011;8206;51.440;6.914;2022-11-21T01:06:30;9.93;;;3.50;;
16197;SDS011;8206;51.440;6.914;2022-11-21T01:08:56;7.80;;;6.20;;
16197;SDS011;8206;51.440;6.914;2022-11-21T01:11:23;8.57;;;4.47;;
16197;SDS011;8206;51.440;6.914;2022-11-21T01:13:51;9.70;;;6.57;;
16197;SDS011;8206;51.440;6.914;2022-11-21T01:16:19;7.67;;;6.67;;
16197;SDS011;8206;51.440;6.914;2022-11-21T01:18:48;5.87;;;4.20;;
16197;SDS011;8206;51.440;6.914;2022-11-21T01:21:15;11.27;;;5.80;;
16197;SDS011;8206;51.440;6.914;2022-11-21T01:23:44;5.50;;;5.00;;
16197;SDS011;8206;51.440;6.914;2022-11-21T01:26:12;8.73;;;6.40;;
16197;SDS011;8206;51.440;6.914;2022-11-21T01:28:41;4.63;;;4.43;;
16197;SDS011;8206;51.440;6.914;2022-11-21T01:31:08;6.80;;;6.40;;
16197;SDS011;8206;51.440;6.914;2022-11-21T01:33:37;15.63;;;5.33;;
16197;SDS011;8206;51.440;6.914;2022-11-21T01:36:05;10.23;;;6.07;;
16197;SDS011;8206;51.440;6.914;2022-11-21T01:38:33;14.97;;;5.97;;
16197;SDS011;8206;51.440;6.914;2022-11-21T01:41:01;12.83;;;6.70;;
16197;SDS011;8206;51.440;6.914;2022-11-21T01:43:28;5.20;;;4.90;;
16197;SDS011;8206;51.440;6.914;2022-11-21T01:45:56;4.37;;;4.13;;
16197;SDS011;8206;51.440;6.914;2022-11-21T01:48:26;5.23;;;4.90;;
16197;SDS011;8206;51.440;6.914;2022-11-21T01:50:57;6.27;;;4.97;;
16197;SDS011;8206;51.440;6.914;2022-11-21T01:53:27;6.03;;;5.43;;
16197;SDS011;8206;51.440;6.914;2022-11-21T01:55:54;11.33;;;6.63;;
16197;SDS011;8206;51.440;6.914;2022-11-21T01:58:22;5.47;;;4.97;;
16197;SDS011;8206;51.440;6.914;2022-11-21T02:00:50;7.03;;;5.70;;
16197;SDS011;8206;51.440;6.914;2022-11-21T02:03:18;5.20;;;4.90;;
16197;SDS011;8206;51.440;6.914;2022-11-21T02:05:48;8.83;;;5.40;;
16197;SDS011;8206;51.440;6.914;2022-11-21T02:08:16;4.10;;;3.80;;
16197;SDS011;8206;51.440;6.914;2022-11-21T02:10:46;7.00;;;5.63;;
16197;SDS011;8206;51.440;6.914;2022-11-21T02:13:18;6.80;;;6.20;;
16197;SDS011;8206;51.440;6.914;2022-11-21T02:15:48;10.27;;;6.13;;
16197;SDS011;8206;51.440;6.914;2022-11-21T02:18:15;5.47;;;4.07;;
16197;SDS011;8206;51.440;6.914;2022-11-21T02:20:42;16.10;;;5.17;;
16197;SDS011;8206;51.440;6.914;2022-11-21T02:23:14;5.17;;;4.93;;
16197;SDS011;8206;51.440;6.914;2022-11-21T02:25:51;6.63;;;5.37;;
16197;SDS011;8206;51.440;6.914;2022-11-21T02:28:19;6.47;;;5.63;;
16197;SDS011;8206;51.440;6.914;2022-11-21T02:30:48;20.27;;;6.30;;
16197;SDS011;8206;51.440;6.914;2022-11-21T02:33:15;6.03;;;5.67;;
16197;SDS011;8206;51.440;6.914;2022-11-21T02:35:42;4.67;;;4.03;;
16197;SDS011;8206;51.440;6.914;2022-11-21T02:38:10;7.37;;;6.90;;
16197;SDS011;8206;51.440;6.914;2022-11-21T02:40:42;7.13;;;6.00;;
16197;SDS011;8206;51.440;6.914;2022-11-21T02:43:15;8.43;;;6.03;;
16197;SDS011;8206;51.440;6.914;2022-11-21T02:45:45;11.57;;;5.73;;
16197;SDS011;8206;51.440;6.914;2022-11-21T02:48:12;10.40;;;5.13;;
16197;SDS011;8206;51.440;6.914;2022-11-21T02:50:40;9.60;;;4.93;;
16197;SDS011;8206;51.440;6.914;2022-11-21T02:53:10;4.87;;;4.23;;
16197;SDS011;8206;51.440;6.914;2022-11-21T02:55:38;5.40;;;4.67;;
16197;SDS011;8206;51.440;6.914;2022-11-21T02:58:05;7.03;;;6.33;;
16197;SDS011;8206;51.440;6.914;2022-11-21T03:00:34;5.43;;;5.03;;
16197;SDS011;8206;51.440;6.914;2022-11-21T03:03:02;6.93;;;6.53;;
16197;SDS011;8206;51.440;6.914;2022-11-21T03:05:29;3.83;;;3.70;;
16197;SDS011;8206;51.440;6.914;2022-11-21T03:07:56;17.80;;;6.07;;
16197;SDS011;8206;51.440;6.914;2022-11-21T03:10:23;14.20;;;7.03;;
16197;SDS011;8206;51.440;6.914;2022-11-21T03:12:50;21.33;;;6.37;;
16197;SDS011;8206;51.440;6.914;2022-11-21T03:15:24;4.93;;;4.53;;
16197;SDS011;8206;51.440;6.914;2022-11-21T03:17:53;7.33;;;6.27;;
16197;SDS011;8206;51.440;6.914;2022-11-21T03:20:20;5.77;;;5.27;;
16197;SDS011;8206;51.440;6.914;2022-11-21T03:22:47;6.93;;;6.30;;
16197;SDS011;8206;51.440;6.914;2022-11-21T03:25:14;6.10;;;5.30;;
16197;SDS011;8206;51.440;6.914;2022-11-21T03:27:41;5.77;;;4.63;;
16197;SDS011;8206;51.440;6.914;2022-11-21T03:30:08;6.77;;;6.07;;
16197;SDS011;8206;51.440;6.914;2022-11-21T03:32:36;8.63;;;5.30;;
16197;SDS011;8206;51.440;6.914;2022-11-21T03:35:04;3.50;;;3.30;;
16197;SDS011;8206;51.440;6.914;2022-11-21T03:37:31;5.23;;;4.87;;
16197;SDS011;8206;51.440;6.914;2022-11-21T03:39:58;4.47;;;4.17;;
16197;SDS011;8206;51.440;6.914;2022-11-21T03:42:26;8.77;;;6.40;;
16197;SDS011;8206;51.440;6.914;2022-11-21T03:44:53;5.67;;;5.20;;
16197;SDS011;8206;51.440;6.914;2022-11-21T03:47:19;11.13;;;6.13;;
16197;SDS011;8206;51.440;6.914;2022-11-21T03:49:46;5.00;;;4.53;;
16197;SDS011;8206;51.440;6.914;2022-11-21T03:52:14;6.77;;;6.17;;
16197;SDS011;8206;51.440;6.914;2022-11-21T03:54:41;9.43;;;7.67;;
16197;SDS011;8206;51.440;6.914;2022-11-21T03:57:08;8.17;;;7.60;;
16197;SDS011;8206;51.440;6.914;2022-11-21T03:59:35;12.57;;;5.40;;
16197;SDS011;8206;51.440;6.914;2022-11-21T04:02:01;5.23;;;4.73;;
16197;SDS011;8206;51.440;6.914;2022-11-21T04:04:28;8.80;;;7.90;;
16197;SDS011;8206;51.440;6.914;2022-11-21T04:06:55;7.40;;;7.00;;
16197;SDS011;8206;51.440;6.914;2022-11-21T04:09:23;7.17;;;6.63;;
16197;SDS011;8206;51.440;6.914;2022-11-21T04:11:50;5.87;;;5.43;;
16197;SDS011;8206;51.440;6.914;2022-11-21T04:14:16;7.23;;;6.23;;
16197;SDS011;8206;51.440;6.914;2022-11-21T04:16:43;10.83;;;6.27;;
16197;SDS011;8206;51.440;6.914;2022-11-21T04:19:10;14.03;;;6.33;;
16197;SDS011;8206;51.440;6.914;2022-11-21T04:21:36;6.23;;;5.67;;
16197;SDS011;8206;51.440;6.914;2022-11-21T04:24:04;8.03;;;5.63;;
16197;SDS011;8206;51.440;6.914;2022-11-21T04:26:32;5.53;;;5.17;;
16197;SDS011;8206;51.440;6.914;2022-11-21T04:28:59;8.97;;;5.60;;
16197;SDS011;8206;51.440;6.914;2022-11-21T04:31:26;10.13;;;4.20;;
16197;SDS011;8206;51.440;6.914;2022-11-21T04:33:52;10.93;;;5.13;;
16197;SDS011;8206;51.440;6.914;2022-11-21T04:36:19;6.87;;;6.37;;
16197;SDS011;8206;51.440;6.914;2022-11-21T04:38:46;6.33;;;4.50;;
16197;SDS011;8206;51.440;6.914;2022-11-21T04:41:13;15.83;;;7.73;;
16197;SDS011;8206;51.440;6.914;2022-11-21T04:43:41;6.90;;;6.33;;
16197;SDS011;8206;51.440;6.914;2022-11-21T04:46:07;3.77;;;3.57;;
16197;SDS011;8206;51.440;6.914;2022-11-21T04:48:34;18.97;;;10.00;;
16197;SDS011;8206;51.440;6.914;2022-11-21T04:51:01;14.00;;;4.97;;
16197;SDS011;8206;51.440;6.914;2022-11-21T04:53:28;19.97;;;8.43;;
16197;SDS011;8206;51.440;6.914;2022-11-21T04:55:55;9.70;;;8.90;;
16197;SDS011;8206;51.440;6.914;2022-11-21T04:58:21;17.40;;;10.93;;
16197;SDS011;8206;51.440;6.914;2022-11-21T05:00:49;8.90;;;8.00;;
16197;SDS011;8206;51.440;6.914;2022-11-21T05:03:16;6.43;;;5.80;;
16197;SDS011;8206;51.440;6.914;2022-11-21T05:05:43;14.23;;;6.03;;
16197;SDS011;8206;51.440;6.914;2022-11-21T05:08:10;12.40;;;6.97;;
16197;SDS011;8206;51.440;6.914;2022-11-21T05:10:36;11.63;;;8.00;;
16197;SDS011;8206;51.440;6.914;2022-11-21T05:13:17;18.07;;;8.10;;
16197;SDS011;8206;51.440;6.914;2022-11-21T05:15:46;22.57;;;7.90;;
16197;SDS011;8206;51.440;6.914;2022-11-21T05:18:17;9.30;;;8.47;;
16197;SDS011;8206;51.440;6.914;2022-11-21T05:20:44;19.37;;;6.73;;
16197;SDS011;8206;51.440;6.914;2022-11-21T05:23:11;15.63;;;9.07;;
16197;SDS011;8206;51.440;6.914;2022-11-21T05:25:38;6.53;;;5.67;;
16197;SDS011;8206;51.440;6.914;2022-11-21T05:28:05;9.53;;;7.90;;
16197;SDS011;8206;51.440;6.914;2022-11-21T05:30:31;26.37;;;10.00;;
16197;SDS011;8206;51.440;6.914;2022-11-21T05:32:58;12.23;;;7.47;;
16197;SDS011;8206;51.440;6.914;2022-11-21T05:35:26;9.43;;;8.43;;
16197;SDS011;8206;51.440;6.914;2022-11-21T05:37:56;7.37;;;6.87;;
16197;SDS011;8206;51.440;6.914;2022-11-21T05:40:24;10.87;;;7.53;;
16197;SDS011;8206;51.440;6.914;2022-11-21T05:42:51;10.67;;;7.37;;
16197;SDS011;8206;51.440;6.914;2022-11-21T05:45:35;5.93;;;5.53;;
16197;SDS011;8206;51.440;6.914;2022-11-21T05:48:02;21.53;;;10.33;;
16197;SDS011;8206;51.440;6.914;2022-11-21T05:50:33;6.33;;;5.60;;
16197;SDS011;8206;51.440;6.914;2022-11-21T05:53:00;51.67;;;8.30;;
16197;SDS011;8206;51.440;6.914;2022-11-21T05:55:28;9.63;;;8.63;;
16197;SDS011;8206;51.440;6.914;2022-11-21T05:57:56;6.97;;;6.47;;
16197;SDS011;8206;51.440;6.914;2022-11-21T06:00:24;6.30;;;5.63;;
16197;SDS011;8206;51.440;6.914;2022-11-21T06:02:51;6.43;;;5.90;;
16197;SDS011;8206;51.440;6.914;2022-11-21T06:05:36;12.43;;;7.53;;
16197;SDS011;8206;51.440;6.914;2022-11-21T06:08:03;8.10;;;6.87;;
16197;SDS011;8206;51.440;6.914;2022-11-21T06:10:30;7.40;;;6.67;;
16197;SDS011;8206;51.440;6.914;2022-11-21T06:12:58;7.50;;;6.17;;
16197;SDS011;8206;51.440;6.914;2022-11-21T06:15:25;7.47;;;6.73;;
16197;SDS011;8206;51.440;6.914;2022-11-21T06:17:52;10.73;;;6.80;;
16197;SDS011;8206;51.440;6.914;2022-11-21T06:20:19;11.17;;;5.90;;
16197;SDS011;8206;51.440;6.914;2022-11-21T06:22:47;19.57;;;5.47;;
16197;SDS011;8206;51.440;6.914;2022-11-21T06:25:13;12.83;;;6.80;;
16197;SDS011;8206;51.440;6.914;2022-11-21T06:27:40;8.67;;;7.97;;
16197;SDS011;8206;51.440;6.914;2022-11-21T06:30:07;7.87;;;7.10;;
16197;SDS011;8206;51.440;6.914;2022-11-21T06:32:35;9.00;;;6.07;;
16197;SDS011;8206;51.440;6.914;2022-11-21T06:35:02;8.70;;;7.87;;
16197;SDS011;8206;51.440;6.914;2022-11-21T06:37:30;9.23;;;8.43;;
16197;SDS011;8206;51.440;6.914;2022-11-21T06:39:58;12.00;;;6.83;;
16197;SDS011;8206;51.440;6.914;2022-11-21T06:42:25;9.37;;;8.60;;
16197;SDS011;8206;51.440;6.914;2022-11-21T06:44:51;6.10;;;5.70;;
16197;SDS011;8206;51.440;6.914;2022-11-21T06:47:18;11.37;;;7.23;;
16197;SDS011;8206;51.440;6.914;2022-11-21T06:49:45;7.37;;;4.50;;
16197;SDS011;8206;51.440;6.914;2022-11-21T06:52:12;21.50;;;7.37;;
16197;SDS011;8206;51.440;6.914;2022-11-21T06:54:38;13.07;;;7.87;;
16197;SDS011;8206;51.440;6.914;2022-11-21T06:57:06;6.33;;;5.60;;
16197;SDS011;8206;51.440;6.914;2022-11-21T06:59:33;9.67;;;6.27;;
16197;SDS011;8206;51.440;6.914;2022-11-21T07:02:00;10.33;;;6.87;;
16197;SDS011;8206;51.440;6.914;2022-11-21T07:04:27;11.70;;;9.50;;
16197;SDS011;8206;51.440;6.914;2022-11-21T07:06:53;9.27;;;8.33;;
16197;SDS011;8206;51.440;6.914;2022-11-21T07:09:20;12.70;;;10.23;;
16197;SDS011;8206;51.440;6.914;2022-11-21T07:11:47;11.80;;;7.83;;
16197;SDS011;8206;51.440;6.914;2022-11-21T07:14:15;7.80;;;5.93;;
16197;SDS011;8206;51.440;6.914;2022-11-21T07:16:41;16.67;;;9.33;;
16197;SDS011;8206;51.440;6.914;2022-11-21T07:19:08;9.20;;;8.50;;
16197;SDS011;8206;51.440;6.914;2022-11-21T07:21:35;12.07;;;8.53;;
16197;SDS011;8206;51.440;6.914;2022-11-21T07:24:02;12.57;;;7.33;;
16197;SDS011;8206;51.440;6.914;2022-11-21T07:26:30;10.17;;;7.53;;
16197;SDS011;8206;51.440;6.914;2022-11-21T07:28:57;8.23;;;6.27;;
16197;SDS011;8206;51.440;6.914;2022-11-21T07:31:25;7.57;;;6.90;;
16197;SDS011;8206;51.440;6.914;2022-11-21T07:33:52;9.10;;;8.30;;
16197;SDS011;8206;51.440;6.914;2022-11-21T07:36:18;11.93;;;8.47;;
16197;SDS011;8206;51.440;6.914;2022-11-21T07:38:45;12.70;;;9.00;;
16197;SDS011;8206;51.440;6.914;2022-11-21T07:41:12;15.80;;;7.93;;
16197;SDS011;8206;51.440;6.914;2022-11-21T07:43:39;13.63;;;8.77;;
16197;SDS011;8206;51.440;6.914;2022-11-21T07:46:05;15.73;;;10.67;;
16197;SDS011;8206;51.440;6.914;2022-11-21T07:48:33;16.00;;;10.87;;
16197;SDS011;8206;51.440;6.914;2022-11-21T07:51:02;7.07;;;6.40;;
16197;SDS011;8206;51.440;6.914;2022-11-21T07:53:29;24.90;;;11.07;;
16197;SDS011;8206;51.440;6.914;2022-11-21T07:55:57;16.63;;;8.13;;
16197;SDS011;8206;51.440;6.914;2022-11-21T07:58:23;10.83;;;9.17;;
16197;SDS011;8206;51.440;6.914;2022-11-21T08:00:50;10.10;;;8.77;;
16197;SDS011;8206;51.440;6.914;2022-11-21T08:03:17;7.60;;;5.17;;
16197;SDS011;8206;51.440;6.914;2022-11-21T08:05:45;14.47;;;5.60;;
16197;SDS011;8206;51.440;6.914;2022-11-21T08:08:12;7.73;;;4.67;;
16197;SDS011;8206;51.440;6.914;2022-11-21T08:10:41;14.57;;;10.13;;
16197;SDS011;8206;51.440;6.914;2022-11-21T08:13:09;9.67;;;6.97;;
16197;SDS011;8206;51.440;6.914;2022-11-21T08:15:36;5.20;;;4.80;;
16197;SDS011;8206;51.440;6.914;2022-11-21T08:18:06;19.83;;;10.67;;
16197;SDS011;8206;51.440;6.914;2022-11-21T08:20:34;10.77;;;7.03;;
16197;SDS011;8206;51.440;6.914;2022-11-21T08:23:02;9.47;;;8.53;;
16197;SDS011;8206;51.440;6.914;2022-11-21T08:25:30;16.60;;;8.23;;
16197;SDS011;8206;51.440;6.914;2022-11-21T08:27:57;30.50;;;11.33;;
16197;SDS011;8206;51.440;6.914;2022-11-21T08:30:24;10.70;;;7.67;;
16197;SDS011;8206;51.440;6.914;2022-11-21T08:32:51;12.50;;;9.77;;
16197;SDS011;8206;51.440;6.914;2022-11-21T08:35:18;10.53;;;8.20;;
16197;SDS011;8206;51.440;6.914;2022-11-21T08:37:45;11.37;;;8.23;;
16197;SDS011;8206;51.440;6.914;2022-11-21T08:40:13;22.60;;;8.90;;
16197;SDS011;8206;51.440;6.914;2022-11-21T08:42:40;11.80;;;10.60;;
16197;SDS011;8206;51.440;6.914;2022-11-21T08:45:07;14.27;;;9.57;;
16197;SDS011;8206;51.440;6.914;2022-11-21T08:47:35;14.63;;;11.63;;
16197;SDS011;8206;51.440;6.914;2022-11-21T08:50:01;8.23;;;7.60;;
16197;SDS011;8206;51.440;6.914;2022-11-21T08:52:28;15.73;;;10.70;;
16197;SDS011;8206;51.440;6.914;2022-11-21T08:54:56;13.63;;;10.70;;
16197;SDS011;8206;51.440;6.914;2022-11-21T08:57:24;9.43;;;8.60;;
16197;SDS011;8206;51.440;6.914;2022-11-21T08:59:50;14.23;;;10.00;;
16197;SDS011;8206;51.440;6.914;2022-11-21T09:02:17;8.20;;;6.40;;
16197;SDS011;8206;51.440;6.914;2022-11-21T09:04:44;7.40;;;6.80;;
16197;SDS011;8206;51.440;6.914;2022-11-21T09:07:11;10.70;;;9.63;;
16197;SDS011;8206;51.440;6.914;2022-11-21T09:09:37;9.27;;;8.37;;
16197;SDS011;8206;51.440;6.914;2022-11-21T09:12:04;7.37;;;6.77;;
16197;SDS011;8206;51.440;6.914;2022-11-21T09:14:32;7.97;;;7.37;;
16197;SDS011;8206;51.440;6.914;2022-11-21T09:17:17;6.93;;;6.23;;
16197;SDS011;8206;51.440;6.914;2022-11-21T09:20:01;16.77;;;6.43;;
16197;SDS011;8206;51.440;6.914;2022-11-21T09:22:28;6.93;;;5.87;;
16197;SDS011;8206;51.440;6.914;2022-11-21T09:24:55;9.73;;;5.00;;
16197;SDS011;8206;51.440;6.914;2022-11-21T09:27:21;6.37;;;5.77;;
16197;SDS011;8206;51.440;6.914;2022-11-21T09:29:49;9.10;;;6.33;;
16197;SDS011;8206;51.440;6.914;2022-11-21T09:32:16;11.13;;;7.73;;
16197;SDS011;8206;51.440;6.914;2022-11-21T09:34:43;8.20;;;6.83;;
16197;SDS011;8206;51.440;6.914;2022-11-21T09:37:10;23.40;;;5.73;;
16197;SDS011;8206;51.440;6.914;2022-11-21T09:39:36;6.63;;;6.17;;
16197;SDS011;8206;51.440;6.914;2022-11-21T09:42:08;13.50;;;6.23;;
16197;SDS011;8206;51.440;6.914;2022-11-21T09:44:56;4.70;;;4.30;;
16197;SDS011;8206;51.440;6.914;2022-11-21T09:47:29;6.90;;;4.23;;
16197;SDS011;8206;51.440;6.914;2022-11-21T09:49:59;5.40;;;4.97;;
16197;SDS011;8206;51.440;6.914;2022-11-21T09:52:29;7.00;;;6.57;;
16197;SDS011;8206;51.440;6.914;2022-11-21T09:55:03;19.17;;;6.03;;
16197;SDS011;8206;51.440;6.914;2022-11-21T09:57:32;10.43;;;9.10;;
16197;SDS011;8206;51.440;6.914;2022-11-21T10:00:03;7.70;;;5.43;;
16197;SDS011;8206;51.440;6.914;2022-11-21T10:02:38;7.87;;;5.63;;
16197;SDS011;8206;51.440;6.914;2022-11-21T10:05:10;9.90;;;6.23;;
16197;SDS011;8206;51.440;6.914;2022-11-21T10:07:38;8.77;;;4.63;;
16197;SDS011;8206;51.440;6.914;2022-11-21T10:10:11;10.47;;;4.80;;
16197;SDS011;8206;51.440;6.914;2022-11-21T10:12:55;9.07;;;5.67;;
16197;SDS011;8206;51.440;6.914;2022-11-21T10:15:35;8.97;;;5.53;;
16197;SDS011;8206;51.440;6.914;2022-11-21T10:18:15;5.47;;;4.63;;
16197;SDS011;8206;51.440;6.914;2022-11-21T10:20:56;20.03;;;4.60;;
16197;SDS011;8206;51.440;6.914;2022-11-21T10:23:31;4.90;;;4.60;;
16197;SDS011;8206;51.440;6.914;2022-11-21T10:26:12;4.03;;;3.60;;
16197;SDS011;8206;51.440;6.914;2022-11-21T10:28:44;4.47;;;4.17;;
16197;SDS011;8206;51.440;6.914;2022-11-21T10:31:17;5.30;;;4.33;;
16197;SDS011;8206;51.440;6.914;2022-11-21T10:33:45;3.60;;;3.00;;
16197;SDS011;8206;51.440;6.914;2022-11-21T10:36:13;3.20;;;2.87;;
16197;SDS011;8206;51.440;6.914;2022-11-21T10:38:48;3.73;;;3.43;;
16197;SDS011;8206;51.440;6.914;2022-11-21T10:41:17;4.47;;;3.70;;
16197;SDS011;8206;51.440;6.914;2022-11-21T10:43:52;8.73;;;6.17;;
16197;SDS011;8206;51.440;6.914;2022-11-21T10:46:54;5.43;;;3.73;;
16197;SDS011;8206;51.440;6.914;2022-11-21T10:49:21;4.70;;;4.07;;
16197;SDS011;8206;51.440;6.914;2022-11-21T10:51:49;3.40;;;3.20;;
16197;SDS011;8206;51.440;6.914;2022-11-21T10:54:21;3.00;;;2.80;;
16197;SDS011;8206;51.440;6.914;2022-11-21T10:57:04;4.37;;;4.00;;
16197;SDS011;8206;51.440;6.914;2022-11-21T10:59:32;3.73;;;3.53;;
16197;SDS011;8206;51.440;6.914;2022-11-21T11:02:01;3.73;;;3.47;;
16197;SDS011;8206;51.440;6.914;2022-11-21T11:04:46;4.30;;;3.23;;
16197;SDS011;8206;51.440;6.914;2022-11-21T11:07:21;4.93;;;4.57;;
16197;SDS011;8206;51.440;6.914;2022-11-21T11:09:49;14.37;;;4.50;;
16197;SDS011;8206;51.440;6.914;2022-11-21T11:12:24;3.13;;;2.83;;
16197;SDS011;8206;51.440;6.914;2022-11-21T11:15:11;3.67;;;3.33;;
16197;SDS011;8206;51.440;6.914;2022-11-21T11:17:44;4.97;;;3.17;;
16197;SDS011;8206;51.440;6.914;2022-11-21T11:20:28;3.23;;;2.97;;
16197;SDS011;8206;51.440;6.914;2022-11-21T11:23:13;16.03;;;5.63;;
16197;SDS011;8206;51.440;6.914;2022-11-21T11:25:44;3.97;;;3.57;;
16197;SDS011;8206;51.440;6.914;2022-11-21T11:28:12;2.30;;;2.20;;
16197;SDS011;8206;51.440;6.914;2022-11-21T11:30:38;2.83;;;2.67;;
16197;SDS011;8206;51.440;6.914;2022-11-21T11:36:02;2.07;;;1.97;;
16197;SDS011;8206;51.440;6.914;2022-11-21T11:38:44;2.27;;;2.17;;
16197;SDS011;8206;51.440;6.914;2022-11-21T11:44:24;2.63;;;2.40;;
16197;SDS011;8206;51.440;6.914;2022-11-21T11:47:16;5.47;;;4.23;;
16197;SDS011;8206;51.440;6.914;2022-11-21T11:49:59;10.30;;;3.30;;
16197;SDS011;8206;51.440;6.914;2022-11-21T11:52:37;2.30;;;2.20;;
16197;SDS011;8206;51.440;6.914;2022-11-21T11:55:14;1.73;;;1.73;;
16197;SDS011;8206;51.440;6.914;2022-11-21T11:57:45;2.50;;;2.40;;
16197;SDS011;8206;51.440;6.914;2022-11-21T12:00:20;1.83;;;1.70;;
16197;SDS011;8206;51.440;6.914;2022-11-21T12:02:54;2.47;;;2.37;;
16197;SDS011;8206;51.440;6.914;2022-11-21T12:05:27;3.00;;;2.70;;
16197;SDS011;8206;51.440;6.914;2022-11-21T12:08:00;2.17;;;2.07;;
16197;SDS011;8206;51.440;6.914;2022-11-21T12:10:33;3.63;;;2.30;;
16197;SDS011;8206;51.440;6.914;2022-11-21T12:13:26;2.40;;;2.03;;
16197;SDS011;8206;51.440;6.914;2022-11-21T12:15:55;1.60;;;1.50;;
16197;SDS011;8206;51.440;6.914;2022-11-21T12:18:29;1.00;;;1.00;;
16197;SDS011;8206;51.440;6.914;2022-11-21T12:21:04;7.40;;;2.33;;
16197;SDS011;8206;51.440;6.914;2022-11-21T12:23:35;1.20;;;1.13;;
16197;SDS011;8206;51.440;6.914;2022-11-21T12:26:28;3.13;;;2.83;;
16197;SDS011;8206;51.440;6.914;2022-11-21T12:29:04;2.33;;;2.13;;
16197;SDS011;8206;51.440;6.914;2022-11-21T12:31:44;1.93;;;1.83;;
16197;SDS011;8206;51.440;6.914;2022-11-21T12:34:24;1.77;;;1.73;;
16197;SDS011;8206;51.440;6.914;2022-11-21T12:37:03;4.23;;;2.33;;
16197;SDS011;8206;51.440;6.914;2022-11-21T12:39:41;2.70;;;2.50;;
16197;SDS011;8206;51.440;6.914;2022-11-21T12:42:34;2.53;;;2.40;;
16197;SDS011;8206;51.440;6.914;2022-11-21T12:45:26;2.40;;;2.30;;
16197;SDS011;8206;51.440;6.914;2022-11-21T12:48:13;8.83;;;2.70;;
16197;SDS011;8206;51.440;6.914;2022-11-21T12:51:06;11.77;;;2.50;;
16197;SDS011;8206;51.440;6.914;2022-11-21T12:54:10;1.57;;;1.57;;
16197;SDS011;8206;51.440;6.914;2022-11-21T12:56:56;4.37;;;2.37;;
16197;SDS011;8206;51.440;6.914;2022-11-21T12:59:37;2.17;;;2.07;;
16197;SDS011;8206;51.440;6.914;2022-11-21T13:02:12;2.60;;;2.40;;
16197;SDS011;8206;51.440;6.914;2022-11-21T13:04:49;4.70;;;2.90;;
16197;SDS011;8206;51.440;6.914;2022-11-21T13:07:18;1.93;;;1.83;;
16197;SDS011;8206;51.440;6.914;2022-11-21T13:09:48;2.37;;;2.27;;
16197;SDS011;8206;51.440;6.914;2022-11-21T13:12:20;2.50;;;2.30;;
16197;SDS011;8206;51.440;6.914;2022-11-21T13:14:54;3.37;;;3.17;;
16197;SDS011;8206;51.440;6.914;2022-11-21T13:17:28;1.43;;;1.43;;
16197;SDS011;8206;51.440;6.914;2022-11-21T13:20:12;3.20;;;3.03;;
16197;SDS011;8206;51.440;6.914;2022-11-21T13:22:47;2.53;;;2.33;;
16197;SDS011;8206;51.440;6.914;2022-11-21T13:25:39;2.47;;;2.20;;
16197;SDS011;8206;51.440;6.914;2022-11-21T13:28:29;3.40;;;2.60;;
16197;SDS011;8206;51.440;6.914;2022-11-21T13:30:58;2.57;;;2.37;;
16197;SDS011;8206;51.440;6.914;2022-11-21T13:33:43;2.40;;;2.30;;
16197;SDS011;8206;51.440;6.914;2022-11-21T13:36:34;1.73;;;1.63;;
16197;SDS011;8206;51.440;6.914;2022-11-21T13:42:00;1.60;;;1.50;;
16197;SDS011;8206;51.440;6.914;2022-11-21T13:44:49;1.70;;;1.67;;
16197;SDS011;8206;51.440;6.914;2022-11-21T13:50:36;2.57;;;2.47;;
16197;SDS011;8206;51.440;6.914;2022-11-21T13:53:24;4.93;;;3.23;;
16197;SDS011;8206;51.440;6.914;2022-11-21T13:56:02;1.40;;;1.30;;
16197;SDS011;8206;51.440;6.914;2022-11-21T13:58:42;2.40;;;2.13;;
16197;SDS011;8206;51.440;6.914;2022-11-21T14:01:36;2.40;;;2.30;;
16197;SDS011;8206;51.440;6.914;2022-11-21T14:04:33;1.67;;;1.57;;
16197;SDS011;8206;51.440;6.914;2022-11-21T14:07:25;2.17;;;1.97;;
16197;SDS011;8206;51.440;6.914;2022-11-21T14:09:55;1.73;;;1.70;;
16197;SDS011;8206;51.440;6.914;2022-11-21T14:12:26;3.20;;;2.90;;
16197;SDS011;8206;51.440;6.914;2022-11-21T14:15:06;2.97;;;2.67;;
16197;SDS011;8206;51.440;6.914;2022-11-21T14:17:48;1.73;;;1.63;;
16197;SDS011;8206;51.440;6.914;2022-11-21T14:20:18;2.50;;;2.40;;
16197;SDS011;8206;51.440;6.914;2022-11-21T14:22:51;19.10;;;3.53;;
16197;SDS011;8206;51.440;6.914;2022-11-21T14:25:22;1.77;;;1.70;;
16197;SDS011;8206;51.440;6.914;2022-11-21T14:27:52;1.97;;;1.87;;
16197;SDS011;8206;51.440;6.914;2022-11-21T14:30:27;3.90;;;2.80;;
16197;SDS011;8206;51.440;6.914;2022-11-21T14:32:56;7.27;;;2.67;;
16197;SDS011;8206;51.440;6.914;2022-11-21T14:36:02;3.63;;;3.33;;
16197;SDS011;8206;51.440;6.914;2022-11-21T14:38:33;6.13;;;2.10;;
16197;SDS011;8206;51.440;6.914;2022-11-21T14:41:20;8.73;;;2.40;;
16197;SDS011;8206;51.440;6.914;2022-11-21T14:44:15;5.47;;;4.10;;
16197;SDS011;8206;51.440;6.914;2022-11-21T14:46:45;2.13;;;2.03;;
16197;SDS011;8206;51.440;6.914;2022-11-21T14:49:25;2.17;;;2.07;;
16197;SDS011;8206;51.440;6.914;2022-11-21T14:51:58;4.90;;;3.27;;
16197;SDS011;8206;51.440;6.914;2022-11-21T14:54:29;4.67;;;2.43;;
16197;SDS011;8206;51.440;6.914;2022-11-21T14:56:59;1.70;;;1.63;;
16197;SDS011;8206;51.440;6.914;2022-11-21T14:59:28;1.50;;;1.50;;
16197;SDS011;8206;51.440;6.914;2022-11-21T15:02:00;4.53;;;2.23;;
16197;SDS011;8206;51.440;6.914;2022-11-21T15:04:30;0.87;;;0.87;;
16197;SDS011;8206;51.440;6.914;2022-11-21T15:06:58;3.50;;;2.17;;
16197;SDS011;8206;51.440;6.914;2022-11-21T15:09:25;1.03;;;0.80;;
16197;SDS011;8206;51.440;6.914;2022-11-21T15:11:54;1.50;;;1.50;;
16197;SDS011;8206;51.440;6.914;2022-11-21T15:14:27;1.57;;;1.47;;
16197;SDS011;8206;51.440;6.914;2022-11-21T15:16:59;0.93;;;0.93;;
16197;SDS011;8206;51.440;6.914;2022-11-21T15:19:29;0.80;;;0.80;;
16197;SDS011;8206;51.440;6.914;2022-11-21T15:21:57;1.33;;;1.33;;
16197;SDS011;8206;51.440;6.914;2022-11-21T15:24:30;0.97;;;0.97;;
16197;SDS011;8206;51.440;6.914;2022-11-21T15:30:00;1.20;;;1.20;;
16197;SDS011;8206;51.440;6.914;2022-11-21T15:33:07;4.17;;;1.30;;
16197;SDS011;8206;51.440;6.914;2022-11-21T15:35:40;1.73;;;1.00;;